createdAt,value
2023-05-07T00:01:20.337Z,100.00
2023-05-07T00:03:49.243Z,100.00
2023-05-07T00:06:18.689Z,100.00
2023-05-07T00:08:47.767Z,100.00
2023-05-07T00:11:16.494Z,100.00
2023-05-07T00:13:45.154Z,100.00
2023-05-07T00:16:13.718Z,100.00
2023-05-07T00:18:43.847Z,100.00
2023-05-07T00:21:12.831Z,100.00
2023-05-07T00:23:41.552Z,100.00
2023-05-07T00:26:10.052Z,100.00
2023-05-07T00:28:39.389Z,100.00
2023-05-07T00:31:08.334Z,100.00
2023-05-07T00:33:36.981Z,100.00
2023-05-07T00:36:07.768Z,100.00
2023-05-07T00:38:36.549Z,100.00
2023-05-07T00:41:05.166Z,100.00
2023-05-07T00:43:34.583Z,100.00
2023-05-07T00:46:03.832Z,100.00
2023-05-07T00:48:33.140Z,100.00
2023-05-07T00:51:01.858Z,100.00
2023-05-07T00:53:32.930Z,100.00
2023-05-07T00:56:02.123Z,100.00
2023-05-07T00:58:31.496Z,100.00
2023-05-07T01:01:00.530Z,100.00
2023-05-07T01:03:29.715Z,100.00
2023-05-07T01:06:01.482Z,100.00
2023-05-07T01:08:37.245Z,100.00
2023-05-07T01:11:06.592Z,100.00
2023-05-07T01:13:36.815Z,100.00
2023-05-07T01:16:08.040Z,100.00
2023-05-07T01:18:36.868Z,100.00
2023-05-07T01:21:07.624Z,100.00
2023-05-07T01:23:38.598Z,100.00
2023-05-07T01:26:07.440Z,100.00
2023-05-07T01:28:36.785Z,100.00
2023-05-07T01:31:07.441Z,100.00
2023-05-07T01:33:40.640Z,100.00
2023-05-07T01:36:11.882Z,100.00
2023-05-07T01:38:43.861Z,100.00
2023-05-07T01:41:14.246Z,100.00
2023-05-07T01:43:45.073Z,100.00
2023-05-07T01:46:15.828Z,100.00
2023-05-07T01:48:47.232Z,100.00
2023-05-07T01:51:16.332Z,100.00
2023-05-07T01:53:49.509Z,100.00
2023-05-07T01:56:18.296Z,100.00
2023-05-07T01:58:48.321Z,100.00
2023-05-07T02:01:17.554Z,100.00
2023-05-07T02:03:46.864Z,100.00
2023-05-07T02:06:22.919Z,100.00
2023-05-07T02:08:54.871Z,100.00
2023-05-07T02:11:24.082Z,100.00
2023-05-07T02:13:54.515Z,100.00
2023-05-07T02:16:24.124Z,100.00
2023-05-07T02:18:54.105Z,100.00
2023-05-07T02:21:22.756Z,100.00
2023-05-07T02:23:51.740Z,100.00
2023-05-07T02:26:23.082Z,100.00
2023-05-07T02:28:51.984Z,100.00
2023-05-07T02:31:20.643Z,100.00
2023-05-07T02:33:49.729Z,100.00
2023-05-07T02:36:19.026Z,100.00
2023-05-07T02:39:04.167Z,100.00
2023-05-07T02:41:35.087Z,100.00
2023-05-07T02:44:04.150Z,100.00
2023-05-07T02:46:33.262Z,100.00
2023-05-07T02:49:07.240Z,100.00
2023-05-07T02:51:37.109Z,100.00
2023-05-07T02:54:10.668Z,100.00
2023-05-07T02:56:40.810Z,100.00
2023-05-07T02:59:09.663Z,100.00
2023-05-07T03:01:42.974Z,100.00
2023-05-07T03:04:12.341Z,100.00
2023-05-07T03:06:40.992Z,100.00
2023-05-07T03:09:10.058Z,100.00
2023-05-07T03:11:40.494Z,100.00
2023-05-07T03:14:09.074Z,100.00
2023-05-07T03:16:37.963Z,100.00
2023-05-07T03:19:06.912Z,100.00
2023-05-07T03:21:35.803Z,100.00
2023-05-07T03:24:04.618Z,100.00
2023-05-07T03:26:33.151Z,100.00
2023-05-07T03:29:03.664Z,100.00
2023-05-07T03:31:32.867Z,100.00
2023-05-07T03:34:03.160Z,100.00
2023-05-07T03:36:31.960Z,100.00
2023-05-07T03:39:01.230Z,100.00
2023-05-07T03:41:38.186Z,100.00
2023-05-07T03:44:08.508Z,100.00
2023-05-07T03:46:37.489Z,100.00
2023-05-07T03:49:06.467Z,100.00
2023-05-07T03:51:37.215Z,100.00
2023-05-07T03:54:07.512Z,100.00
2023-05-07T03:56:36.768Z,100.00
2023-05-07T03:59:05.755Z,100.00
2023-05-07T04:01:38.698Z,100.00
2023-05-07T04:04:07.577Z,100.00
2023-05-07T04:06:38.716Z,100.00
2023-05-07T04:09:07.955Z,100.00
2023-05-07T04:11:38.432Z,100.00
2023-05-07T04:14:07.942Z,100.00
2023-05-07T04:16:39.590Z,100.00
2023-05-07T04:19:10.164Z,100.00
2023-05-07T04:21:41.420Z,100.00
2023-05-07T04:24:10.523Z,100.00
2023-05-07T04:26:39.299Z,100.00
2023-05-07T04:29:10.143Z,100.00
2023-05-07T04:31:40.581Z,100.00
2023-05-07T04:34:10.385Z,100.00
2023-05-07T04:36:41.116Z,100.00
2023-05-07T04:39:13.527Z,100.00
2023-05-07T04:41:45.603Z,100.00
2023-05-07T04:44:15.875Z,100.00
2023-05-07T04:46:47.098Z,100.00
2023-05-07T04:49:16.653Z,100.00
2023-05-07T04:51:46.041Z,100.00
2023-05-07T04:54:17.206Z,100.00
2023-05-07T04:56:46.577Z,100.00
2023-05-07T04:59:15.910Z,100.00
2023-05-07T05:01:44.889Z,100.00
2023-05-07T05:04:15.512Z,100.00
2023-05-07T05:06:45.556Z,100.00
2023-05-07T05:09:16.180Z,100.00
2023-05-07T05:11:45.176Z,100.00
2023-05-07T05:14:14.371Z,100.00
2023-05-07T05:16:43.395Z,100.00
2023-05-07T05:19:12.437Z,100.00
2023-05-07T05:21:43.568Z,100.00
2023-05-07T05:24:12.972Z,100.00
2023-05-07T05:26:42.135Z,100.00
2023-05-07T05:29:11.452Z,100.00
2023-05-07T05:31:43.317Z,100.00
2023-05-07T05:34:12.738Z,100.00
2023-05-07T05:36:41.665Z,100.00
2023-05-07T05:39:11.714Z,100.00
2023-05-07T05:41:40.912Z,100.00
2023-05-07T05:44:10.421Z,100.00
2023-05-07T05:46:39.716Z,100.00
2023-05-07T05:49:08.938Z,100.00
2023-05-07T05:51:37.759Z,100.00
2023-05-07T05:54:07.257Z,100.00
2023-05-07T05:56:39.849Z,100.00
2023-05-07T05:59:09.779Z,100.00
2023-05-07T06:01:38.931Z,100.00
2023-05-07T06:04:07.638Z,100.00
2023-05-07T06:06:36.975Z,100.00
2023-05-07T06:09:05.970Z,100.00
2023-05-07T06:11:42.312Z,100.00
2023-05-07T06:14:12.421Z,100.00
2023-05-07T06:16:41.610Z,100.00
2023-05-07T06:19:10.496Z,100.00
2023-05-07T06:21:41.836Z,100.00
2023-05-07T06:24:11.229Z,100.00
2023-05-07T06:26:42.934Z,100.00
2023-05-07T06:29:11.535Z,100.00
2023-05-07T06:31:42.950Z,100.00
2023-05-07T06:34:15.405Z,100.00
2023-05-07T06:36:44.554Z,100.00
2023-05-07T06:39:38.881Z,100.00
2023-05-07T06:42:09.009Z,100.00
2023-05-07T06:44:43.199Z,100.00
2023-05-07T06:47:16.347Z,100.00
2023-05-07T06:49:47.883Z,100.00
2023-05-07T06:52:19.420Z,100.00
2023-05-07T06:54:50.063Z,100.00
2023-05-07T06:57:21.933Z,100.00
2023-05-07T06:59:50.699Z,100.00
2023-05-07T07:02:19.779Z,100.00
2023-05-07T07:04:50.539Z,100.00
2023-05-07T07:07:19.349Z,100.00
2023-05-07T07:09:49.954Z,100.00
2023-05-07T07:12:24.064Z,100.00
2023-05-07T07:14:54.959Z,100.00
2023-05-07T07:17:24.940Z,100.00
2023-05-07T07:19:54.017Z,100.00
2023-05-07T07:22:22.873Z,100.00
2023-05-07T07:24:52.380Z,100.00
2023-05-07T07:27:22.794Z,100.00
2023-05-07T07:29:51.702Z,100.00
2023-05-07T07:32:21.799Z,100.00
2023-05-07T07:34:50.870Z,100.00
2023-05-07T07:37:20.078Z,100.00
2023-05-07T07:39:48.956Z,100.00
2023-05-07T07:42:17.881Z,100.00
2023-05-07T07:44:48.121Z,100.00
2023-05-07T07:47:18.196Z,100.00
2023-05-07T07:49:48.490Z,100.00
2023-05-07T07:52:17.488Z,100.00
2023-05-07T07:54:47.625Z,100.00
2023-05-07T07:57:16.665Z,100.00
2023-05-07T07:59:47.358Z,100.00
2023-05-07T08:02:18.015Z,100.00
2023-05-07T08:04:47.562Z,100.00
2023-05-07T08:07:16.355Z,100.00
2023-05-07T08:09:48.177Z,100.00
2023-05-07T08:12:18.962Z,100.00
2023-05-07T08:14:50.594Z,100.00
2023-05-07T08:17:19.418Z,100.00
2023-05-07T08:19:48.647Z,100.00
2023-05-07T08:22:19.577Z,100.00
2023-05-07T08:24:48.952Z,100.00
2023-05-07T08:27:18.043Z,100.00
2023-05-07T08:29:49.498Z,100.00
2023-05-07T08:32:20.215Z,100.00
2023-05-07T08:34:48.914Z,100.00
2023-05-07T08:37:17.487Z,100.00
2023-05-07T08:39:47.124Z,100.00
2023-05-07T08:42:25.595Z,100.00
2023-05-07T08:45:00.494Z,100.00
2023-05-07T08:47:36.914Z,100.00
2023-05-07T08:50:07.381Z,100.00
2023-05-07T08:52:37.706Z,100.00
2023-05-07T08:55:07.754Z,100.00
2023-05-07T08:57:40.077Z,100.00
2023-05-07T09:00:16.679Z,100.00
2023-05-07T09:02:46.735Z,100.00
2023-05-07T09:05:16.006Z,100.00
2023-05-07T09:07:45.085Z,100.00
2023-05-07T09:10:16.583Z,100.00
2023-05-07T09:12:49.570Z,100.00
2023-05-07T09:15:20.646Z,100.00
2023-05-07T09:17:49.484Z,100.00
2023-05-07T09:20:19.470Z,100.00
2023-05-07T09:22:49.198Z,100.00
2023-05-07T09:25:31.068Z,100.00
2023-05-07T09:28:02.472Z,100.00
2023-05-07T09:30:33.877Z,100.00
2023-05-07T09:33:06.260Z,100.00
2023-05-07T09:35:40.014Z,100.00
2023-05-07T09:38:15.853Z,100.00
2023-05-07T09:40:44.758Z,100.00
2023-05-07T09:43:16.519Z,100.00
2023-05-07T09:45:53.191Z,100.00
2023-05-07T09:48:25.523Z,100.00
2023-05-07T09:50:59.910Z,100.00
2023-05-07T09:53:33.443Z,100.00
2023-05-07T09:56:05.718Z,100.00
2023-05-07T09:58:40.451Z,100.00
2023-05-07T10:01:12.949Z,100.00
2023-05-07T10:03:44.576Z,100.00
2023-05-07T10:06:15.344Z,100.00
2023-05-07T10:08:45.467Z,100.00
2023-05-07T10:11:17.137Z,100.00
2023-05-07T10:13:48.865Z,100.00
2023-05-07T10:16:20.626Z,100.00
2023-05-07T10:18:53.776Z,100.00
2023-05-07T10:21:26.940Z,100.00
2023-05-07T10:24:02.644Z,100.00
2023-05-07T10:26:36.244Z,100.00
2023-05-07T10:29:10.527Z,100.00
2023-05-07T10:31:56.730Z,100.00
2023-05-07T10:34:32.825Z,100.00
2023-05-07T10:37:02.917Z,100.00
2023-05-07T10:39:32.804Z,100.00
2023-05-07T10:42:11.370Z,100.00
2023-05-07T10:44:42.436Z,100.00
2023-05-07T10:47:20.037Z,100.00
2023-05-07T10:50:24.740Z,100.00
2023-05-07T10:53:29.595Z,100.00
2023-05-07T10:56:30.034Z,100.00
2023-05-07T10:59:42.009Z,100.00
2023-05-07T11:02:24.181Z,100.00
2023-05-07T11:05:21.844Z,100.00
2023-05-07T11:07:58.267Z,100.00
2023-05-07T11:10:53.345Z,100.00
2023-05-07T11:13:51.773Z,100.00
2023-05-07T11:16:39.730Z,100.00
2023-05-07T11:19:54.259Z,100.00
2023-05-07T11:22:48.947Z,100.00
2023-05-07T11:25:24.741Z,100.00
2023-05-07T11:28:07.923Z,100.00
2023-05-07T11:30:37.567Z,100.00
2023-05-07T11:33:08.666Z,100.00
2023-05-07T11:35:39.707Z,100.00
2023-05-07T11:38:11.140Z,100.00
2023-05-07T11:40:51.928Z,95.70
2023-05-07T11:43:20.629Z,96.23
2023-05-07T11:45:49.297Z,97.20
2023-05-07T11:48:19.135Z,94.94
2023-05-07T11:50:56.862Z,86.23
2023-05-07T11:53:27.724Z,94.13
2023-05-07T11:55:57.785Z,99.00
2023-05-07T11:58:28.143Z,97.22
2023-05-07T12:00:57.203Z,98.07
2023-05-07T12:03:25.884Z,98.47
2023-05-07T12:05:56.288Z,98.96
2023-05-07T12:08:25.123Z,96.48
2023-05-07T12:10:53.769Z,94.89
2023-05-07T12:13:25.407Z,93.63
2023-05-07T12:15:54.229Z,95.13
2023-05-07T12:18:23.802Z,97.13
2023-05-07T12:20:52.680Z,96.05
2023-05-07T12:23:23.815Z,88.26
2023-05-07T12:25:52.515Z,91.94
2023-05-07T12:28:21.958Z,96.67
2023-05-07T12:30:52.759Z,94.30
2023-05-07T12:33:26.045Z,93.30
2023-05-07T12:35:57.489Z,93.86
2023-05-07T12:38:27.517Z,90.23
2023-05-07T12:40:57.090Z,91.27
2023-05-07T12:43:28.623Z,86.38
2023-05-07T12:45:58.906Z,90.00
2023-05-07T12:48:28.288Z,90.65
2023-05-07T12:50:57.910Z,94.50
2023-05-07T12:53:29.301Z,94.46
2023-05-07T12:56:00.710Z,93.66
2023-05-07T12:58:31.754Z,93.33
2023-05-07T13:01:06.422Z,94.43
2023-05-07T13:03:36.703Z,94.23
2023-05-07T13:06:07.488Z,96.21
2023-05-07T13:08:41.513Z,97.50
2023-05-07T13:11:11.706Z,99.32
2023-05-07T13:13:41.615Z,100.00
2023-05-07T13:16:11.629Z,97.68
2023-05-07T13:18:41.737Z,95.75
2023-05-07T13:21:11.237Z,99.25
2023-05-07T13:23:41.988Z,99.92
2023-05-07T13:26:24.805Z,100.00
2023-05-07T13:28:55.777Z,100.00
2023-05-07T13:31:24.916Z,100.00
2023-05-07T13:33:53.973Z,100.00
2023-05-07T13:36:22.828Z,99.94
2023-05-07T13:38:53.496Z,100.00
2023-05-07T13:41:22.272Z,100.00
2023-05-07T13:43:51.272Z,100.00
2023-05-07T13:46:20.022Z,100.00
2023-05-07T13:48:48.691Z,100.00
2023-05-07T13:51:18.052Z,100.00
2023-05-07T13:53:46.999Z,100.00
2023-05-07T13:56:18.059Z,100.00
2023-05-07T13:58:58.768Z,100.00
2023-05-07T14:01:28.950Z,100.00
2023-05-07T14:03:59.255Z,100.00
2023-05-07T14:06:28.315Z,100.00
2023-05-07T14:08:59.672Z,100.00
2023-05-07T14:11:29.935Z,100.00
2023-05-07T14:13:59.658Z,100.00
2023-05-07T14:16:28.648Z,100.00
2023-05-07T14:18:58.471Z,100.00
2023-05-07T14:21:27.908Z,100.00
2023-05-07T14:23:57.773Z,100.00
2023-05-07T14:26:28.412Z,100.00
2023-05-07T14:28:59.588Z,100.00
2023-05-07T14:31:28.854Z,100.00
2023-05-07T14:33:59.093Z,100.00
2023-05-07T14:36:28.657Z,100.00
2023-05-07T14:38:58.161Z,100.00
2023-05-07T14:41:27.296Z,100.00
2023-05-07T14:43:56.181Z,100.00
2023-05-07T14:46:27.513Z,100.00
2023-05-07T14:48:56.394Z,100.00
2023-05-07T14:51:25.174Z,100.00
2023-05-07T14:53:53.879Z,100.00
2023-05-07T14:56:22.906Z,100.00
2023-05-07T14:58:52.042Z,100.00
2023-05-07T15:01:20.901Z,100.00
2023-05-07T15:03:51.284Z,100.00
2023-05-07T15:06:20.208Z,100.00
2023-05-07T15:08:49.873Z,100.00
2023-05-07T15:11:18.843Z,100.00
2023-05-07T15:13:47.551Z,100.00
2023-05-07T15:16:16.414Z,100.00
2023-05-07T15:18:45.583Z,100.00
2023-05-07T15:21:16.030Z,100.00
2023-05-07T15:23:45.985Z,100.00
2023-05-07T15:26:14.927Z,100.00
2023-05-07T15:28:43.485Z,100.00
2023-05-07T15:31:12.103Z,100.00
2023-05-07T15:33:41.957Z,100.00
2023-05-07T15:36:11.200Z,100.00
2023-05-07T15:38:41.510Z,100.00
2023-05-07T15:41:10.530Z,100.00
2023-05-07T15:43:46.758Z,100.00
2023-05-07T15:46:20.764Z,100.00
2023-05-07T15:48:49.647Z,100.00
2023-05-07T15:51:18.981Z,100.00
2023-05-07T15:53:49.208Z,100.00
2023-05-07T15:56:17.929Z,100.00
2023-05-07T15:58:46.996Z,100.00
2023-05-07T16:01:16.275Z,100.00
2023-05-07T16:03:45.557Z,100.00
2023-05-07T16:06:14.480Z,100.00
2023-05-07T16:08:44.288Z,100.00
2023-05-07T16:11:15.048Z,100.00
2023-05-07T16:13:43.928Z,100.00
2023-05-07T16:16:13.669Z,100.00
2023-05-07T16:18:42.539Z,100.00
2023-05-07T16:21:11.362Z,100.00
2023-05-07T16:23:40.506Z,100.00
2023-05-07T16:26:09.248Z,100.00
2023-05-07T16:28:39.225Z,100.00
2023-05-07T16:31:10.186Z,100.00
2023-05-07T16:33:41.094Z,100.00
2023-05-07T16:36:10.118Z,100.00
2023-05-07T16:38:38.887Z,100.00
2023-05-07T16:41:10.871Z,100.00
2023-05-07T16:43:42.420Z,100.00
2023-05-07T16:46:11.076Z,100.00
2023-05-07T16:48:39.750Z,100.00
2023-05-07T16:51:09.037Z,100.00
2023-05-07T16:53:37.793Z,100.00
2023-05-07T16:56:07.398Z,100.00
2023-05-07T16:58:36.499Z,100.00
2023-05-07T17:01:07.394Z,100.00
2023-05-07T17:03:36.659Z,100.00
2023-05-07T17:06:09.783Z,100.00
2023-05-07T17:08:39.474Z,100.00
2023-05-07T17:11:09.680Z,100.00
2023-05-07T17:13:38.470Z,100.00
2023-05-07T17:16:08.651Z,100.00
2023-05-07T17:18:39.581Z,100.00
2023-05-07T17:21:08.241Z,100.00
2023-05-07T17:23:37.032Z,100.00
2023-05-07T17:26:12.608Z,100.00
2023-05-07T17:28:42.364Z,100.00
2023-05-07T17:31:12.677Z,100.00
2023-05-07T17:33:41.904Z,100.00
2023-05-07T17:36:10.665Z,100.00
2023-05-07T17:38:39.275Z,100.00
2023-05-07T17:41:08.136Z,100.00
2023-05-07T17:43:37.108Z,100.00
2023-05-07T17:46:05.845Z,100.00
2023-05-07T17:48:37.282Z,100.00
2023-05-07T17:51:06.179Z,100.00
2023-05-07T17:53:35.017Z,100.00
2023-05-07T17:56:03.685Z,100.00
2023-05-07T17:58:33.828Z,100.00
2023-05-07T18:01:05.507Z,100.00
2023-05-07T18:03:36.824Z,100.00
2023-05-07T18:06:07.426Z,100.00
2023-05-07T18:08:37.392Z,100.00
2023-05-07T18:11:06.586Z,100.00
2023-05-07T18:13:37.500Z,100.00
2023-05-07T18:16:06.587Z,100.00
2023-05-07T18:18:36.784Z,100.00
2023-05-07T18:21:05.995Z,100.00
2023-05-07T18:23:36.857Z,100.00
2023-05-07T18:26:08.245Z,100.00
2023-05-07T18:28:37.224Z,100.00
2023-05-07T18:31:06.192Z,100.00
2023-05-07T18:33:36.359Z,100.00
2023-05-07T18:36:05.450Z,100.00
2023-05-07T18:38:34.315Z,100.00
2023-05-07T18:41:04.475Z,100.00
2023-05-07T18:43:34.086Z,100.00
2023-05-07T18:46:03.120Z,100.00
2023-05-07T18:48:32.162Z,100.00
2023-05-07T18:51:03.392Z,100.00
2023-05-07T18:53:33.295Z,100.00
2023-05-07T18:56:02.196Z,100.00
2023-05-07T18:58:31.352Z,100.00
2023-05-07T19:01:00.155Z,100.00
2023-05-07T19:03:29.471Z,100.00
2023-05-07T19:05:58.452Z,100.00
2023-05-07T19:08:28.635Z,100.00
2023-05-07T19:10:57.626Z,100.00
2023-05-07T19:13:27.927Z,100.00
2023-05-07T19:15:57.148Z,100.00
2023-05-07T19:18:25.895Z,100.00
2023-05-07T19:20:55.408Z,100.00
2023-05-07T19:23:24.790Z,100.00
2023-05-07T19:25:55.287Z,100.00
2023-05-07T19:28:27.088Z,100.00
2023-05-07T19:30:56.132Z,100.00
2023-05-07T19:33:25.643Z,100.00
2023-05-07T19:35:58.564Z,100.00
2023-05-07T19:38:27.979Z,100.00
2023-05-07T19:41:00.569Z,100.00
2023-05-07T19:43:31.318Z,100.00
2023-05-07T19:46:01.662Z,100.00
2023-05-07T19:48:30.563Z,100.00
2023-05-07T19:51:00.384Z,100.00
2023-05-07T19:53:30.625Z,100.00
2023-05-07T19:56:06.375Z,100.00
2023-05-07T19:58:38.791Z,100.00
2023-05-07T20:01:09.831Z,100.00
2023-05-07T20:03:38.973Z,100.00
2023-05-07T20:06:08.074Z,100.00
2023-05-07T20:08:37.297Z,100.00
2023-05-07T20:11:11.055Z,100.00
2023-05-07T20:13:40.703Z,100.00
2023-05-07T20:16:09.739Z,100.00
2023-05-07T20:18:38.745Z,100.00
2023-05-07T20:21:07.888Z,100.00
2023-05-07T20:23:36.727Z,100.00
2023-05-07T20:26:06.314Z,100.00
2023-05-07T20:28:36.854Z,100.00
2023-05-07T20:31:06.004Z,100.00
2023-05-07T20:33:34.801Z,100.00
2023-05-07T20:36:03.980Z,100.00
2023-05-07T20:38:34.169Z,100.00
2023-05-07T20:41:07.938Z,100.00
2023-05-07T20:43:38.962Z,100.00
2023-05-07T20:46:08.730Z,100.00
2023-05-07T20:48:40.978Z,100.00
2023-05-07T20:51:10.903Z,100.00
2023-05-07T20:53:41.103Z,100.00
2023-05-07T20:56:10.194Z,100.00
2023-05-07T20:58:40.624Z,100.00
2023-05-07T21:01:09.540Z,100.00
2023-05-07T21:03:38.640Z,100.00
2023-05-07T21:06:07.628Z,100.00
2023-05-07T21:08:36.739Z,100.00
2023-05-07T21:11:06.233Z,100.00
2023-05-07T21:13:35.211Z,100.00
2023-05-07T21:16:05.927Z,100.00
2023-05-07T21:18:34.967Z,100.00
2023-05-07T21:21:03.834Z,100.00
2023-05-07T21:23:33.015Z,100.00
2023-05-07T21:26:01.744Z,100.00
2023-05-07T21:28:30.621Z,100.00
2023-05-07T21:30:59.667Z,100.00
2023-05-07T21:33:29.714Z,100.00
2023-05-07T21:35:58.639Z,100.00
2023-05-07T21:38:27.922Z,100.00
2023-05-07T21:40:56.702Z,100.00
2023-05-07T21:43:25.414Z,100.00
2023-05-07T21:45:54.158Z,100.00
2023-05-07T21:48:23.305Z,100.00
2023-05-07T21:51:03.705Z,100.00
2023-05-07T21:53:32.614Z,100.00
2023-05-07T21:56:02.482Z,100.00
2023-05-07T21:58:32.283Z,100.00
2023-05-07T22:01:02.015Z,100.00
2023-05-07T22:03:31.078Z,100.00
2023-05-07T22:05:59.846Z,100.00
2023-05-07T22:08:29.852Z,100.00
2023-05-07T22:10:58.541Z,100.00
2023-05-07T22:13:27.514Z,100.00
2023-05-07T22:15:58.389Z,100.00
2023-05-07T22:18:27.780Z,100.00
2023-05-07T22:20:59.350Z,100.00
2023-05-07T22:23:29.549Z,100.00
2023-05-07T22:25:59.075Z,100.00
2023-05-07T22:28:27.952Z,100.00
2023-05-07T22:30:56.757Z,100.00
2023-05-07T22:33:25.613Z,100.00
2023-05-07T22:35:54.647Z,100.00
2023-05-07T22:38:23.301Z,100.00
2023-05-07T22:40:53.313Z,100.00
2023-05-07T22:43:21.913Z,100.00
2023-05-07T22:45:50.510Z,100.00
2023-05-07T22:48:19.514Z,100.00
2023-05-07T22:50:48.083Z,100.00
2023-05-07T22:53:16.713Z,100.00
2023-05-07T22:55:45.194Z,100.00
2023-05-07T22:58:15.447Z,100.00
2023-05-07T23:00:44.378Z,100.00
2023-05-07T23:03:13.121Z,100.00
2023-05-07T23:05:41.942Z,100.00
2023-05-07T23:08:10.520Z,100.00
2023-05-07T23:10:39.212Z,100.00
2023-05-07T23:13:09.549Z,100.00
2023-05-07T23:15:40.024Z,100.00
2023-05-07T23:18:08.714Z,100.00
2023-05-07T23:20:37.347Z,100.00
2023-05-07T23:23:05.962Z,100.00
2023-05-07T23:25:34.814Z,100.00
2023-05-07T23:28:03.465Z,100.00
2023-05-07T23:30:32.184Z,100.00
2023-05-07T23:33:02.197Z,100.00
2023-05-07T23:35:30.796Z,100.00
2023-05-07T23:38:00.352Z,100.00
2023-05-07T23:40:29.126Z,100.00
2023-05-07T23:42:57.764Z,100.00
2023-05-07T23:45:27.023Z,100.00
2023-05-07T23:47:56.672Z,100.00
2023-05-07T23:50:26.631Z,100.00
2023-05-07T23:52:55.246Z,100.00
2023-05-07T23:55:23.865Z,100.00
2023-05-07T23:57:52.530Z,100.00
